createdAt,value
2023-03-06T00:00:40.328Z,57.17
2023-03-06T00:03:18.513Z,56.65
2023-03-06T00:05:47.697Z,56.08
2023-03-06T00:08:16.294Z,56.38
2023-03-06T00:10:44.770Z,56.49
2023-03-06T00:13:15.346Z,56.37
2023-03-06T00:15:43.719Z,56.06
2023-03-06T00:18:12.131Z,56.24
2023-03-06T00:20:42.554Z,56.48
2023-03-06T00:23:12.356Z,56.31
2023-03-06T00:25:46.888Z,55.76
2023-03-06T00:28:16.093Z,55.18
2023-03-06T00:30:46.280Z,55.10
2023-03-06T00:33:14.746Z,54.67
2023-03-06T00:35:43.122Z,54.30
2023-03-06T00:38:13.032Z,53.95
2023-03-06T00:40:41.524Z,54.02
2023-03-06T00:43:10.173Z,53.92
2023-03-06T00:45:39.378Z,54.04
2023-03-06T00:48:11.163Z,53.81
2023-03-06T00:50:39.659Z,53.41
2023-03-06T00:53:08.119Z,53.72
2023-03-06T00:55:36.679Z,53.52
2023-03-06T00:58:05.092Z,53.37
2023-03-06T01:00:33.726Z,53.25
2023-03-06T01:03:02.220Z,53.77
2023-03-06T01:05:33.407Z,53.48
2023-03-06T01:08:02.030Z,53.33
2023-03-06T01:10:31.439Z,53.24
2023-03-06T01:12:59.806Z,53.47
2023-03-06T01:15:28.065Z,53.44
2023-03-06T01:17:56.431Z,53.49
2023-03-06T01:20:25.209Z,53.71
2023-03-06T01:22:55.702Z,53.78
2023-03-06T01:25:25.553Z,54.09
2023-03-06T01:27:53.985Z,54.66
2023-03-06T01:30:22.397Z,54.74
2023-03-06T01:32:50.828Z,55.36
2023-03-06T01:35:19.554Z,55.60
2023-03-06T01:37:47.992Z,55.23
2023-03-06T01:40:16.383Z,55.63
2023-03-06T01:42:49.133Z,56.03
2023-03-06T01:45:17.455Z,56.59
2023-03-06T01:47:45.816Z,57.21
2023-03-06T01:50:14.438Z,57.60
2023-03-06T01:52:48.634Z,57.15
2023-03-06T01:55:26.488Z,56.86
2023-03-06T01:58:01.605Z,57.21
2023-03-06T02:00:31.182Z,57.74
2023-03-06T02:03:14.440Z,57.79
2023-03-06T02:05:44.385Z,57.53
2023-03-06T02:08:15.600Z,57.40
2023-03-06T02:10:57.516Z,57.77
2023-03-06T02:13:25.947Z,57.92
2023-03-06T02:15:54.910Z,57.99
2023-03-06T02:18:23.560Z,58.26
2023-03-06T02:20:59.132Z,58.64
2023-03-06T02:23:56.726Z,58.67
2023-03-06T02:26:27.983Z,58.37
2023-03-06T02:28:58.687Z,57.55
2023-03-06T02:31:30.236Z,57.71
2023-03-06T02:34:15.668Z,57.52
2023-03-06T02:36:52.052Z,57.55
2023-03-06T02:39:24.216Z,57.67
2023-03-06T02:41:53.281Z,57.87
2023-03-06T02:44:22.886Z,57.66
2023-03-06T02:46:51.234Z,57.65
2023-03-06T02:49:19.627Z,57.49
2023-03-06T02:51:48.061Z,57.88
2023-03-06T02:54:18.541Z,57.80
2023-03-06T02:56:47.235Z,58.27
2023-03-06T02:59:15.699Z,58.92
2023-03-06T03:01:44.521Z,59.06
2023-03-06T03:04:12.986Z,58.28
2023-03-06T03:06:41.405Z,58.31
2023-03-06T03:09:10.110Z,59.02
2023-03-06T03:11:38.499Z,58.94
2023-03-06T03:14:06.892Z,59.05
2023-03-06T03:16:36.645Z,59.40
2023-03-06T03:19:05.940Z,58.66
2023-03-06T03:21:34.498Z,58.71
2023-03-06T03:24:02.780Z,59.36
2023-03-06T03:26:31.359Z,59.51
2023-03-06T03:29:05.280Z,59.38
2023-03-06T03:31:33.890Z,59.11
2023-03-06T03:34:02.950Z,59.56
2023-03-06T03:36:33.495Z,59.43
2023-03-06T03:39:02.579Z,60.06
2023-03-06T03:41:31.233Z,59.29
2023-03-06T03:44:00.682Z,59.64
2023-03-06T03:46:29.878Z,60.29
2023-03-06T03:48:58.768Z,61.11
2023-03-06T03:51:28.023Z,61.08
2023-03-06T03:53:58.292Z,61.66
2023-03-06T03:56:28.621Z,61.56
2023-03-06T03:59:01.992Z,62.36
2023-03-06T04:01:33.829Z,62.83
2023-03-06T04:04:02.790Z,63.05
2023-03-06T04:06:31.224Z,62.31
2023-03-06T04:08:59.803Z,61.67
2023-03-06T04:11:28.438Z,61.27
2023-03-06T04:13:56.943Z,62.06
2023-03-06T04:16:25.691Z,62.91
2023-03-06T04:18:54.201Z,61.82
2023-03-06T04:21:22.879Z,61.35
2023-03-06T04:23:51.221Z,63.05
2023-03-06T04:26:19.630Z,62.57
2023-03-06T04:28:48.032Z,63.33
2023-03-06T04:31:17.013Z,63.14
2023-03-06T04:33:45.358Z,62.42
2023-03-06T04:36:32.268Z,62.57
2023-03-06T04:39:05.165Z,63.66
2023-03-06T04:41:34.108Z,62.63
2023-03-06T04:44:02.598Z,63.87
2023-03-06T04:46:30.951Z,63.65
2023-03-06T04:48:59.286Z,62.77
2023-03-06T04:51:27.863Z,62.81
2023-03-06T04:53:56.261Z,63.33
2023-03-06T04:56:24.579Z,63.77
2023-03-06T04:58:52.912Z,63.01
2023-03-06T05:01:21.355Z,63.60
2023-03-06T05:03:52.534Z,63.68
2023-03-06T05:06:20.984Z,62.96
2023-03-06T05:08:49.389Z,62.85
2023-03-06T05:11:17.886Z,62.96
2023-03-06T05:13:46.208Z,62.58
2023-03-06T05:16:14.614Z,63.83
2023-03-06T05:18:43.015Z,62.86
2023-03-06T05:21:11.390Z,63.07
2023-03-06T05:23:40.064Z,64.04
2023-03-06T05:26:11.187Z,64.24
2023-03-06T05:28:39.710Z,64.73
2023-03-06T05:31:08.166Z,63.94
2023-03-06T05:33:37.043Z,63.60
2023-03-06T05:36:07.519Z,64.28
2023-03-06T05:38:35.906Z,64.45
2023-03-06T05:41:04.515Z,64.64
2023-03-06T05:43:32.809Z,66.92
2023-03-06T05:46:05.890Z,65.41
2023-03-06T05:48:35.694Z,65.03
2023-03-06T05:51:05.393Z,65.86
2023-03-06T05:53:33.762Z,66.21
2023-03-06T05:56:05.369Z,66.55
2023-03-06T05:58:34.717Z,66.93
2023-03-06T06:01:15.054Z,67.18
2023-03-06T06:03:44.871Z,65.90
2023-03-06T06:06:15.188Z,65.87
2023-03-06T06:08:43.743Z,65.14
2023-03-06T06:11:13.911Z,64.73
2023-03-06T06:13:42.347Z,65.72
2023-03-06T06:16:15.754Z,65.59
2023-03-06T06:18:44.214Z,66.00
2023-03-06T06:21:17.340Z,66.32
2023-03-06T06:23:46.377Z,65.13
2023-03-06T06:26:14.718Z,65.44
2023-03-06T06:28:43.053Z,65.88
2023-03-06T06:31:20.269Z,64.99
2023-03-06T06:33:48.652Z,64.62
2023-03-06T06:36:21.881Z,63.67
2023-03-06T06:38:50.395Z,63.33
2023-03-06T06:41:42.247Z,62.16
2023-03-06T06:44:10.684Z,59.57
2023-03-06T06:47:20.879Z,59.42
2023-03-06T06:49:27.420Z,59.66
2023-03-06T06:51:55.786Z,59.32
2023-03-06T06:54:24.983Z,58.05
2023-03-06T06:56:53.679Z,57.49
2023-03-06T06:59:24.002Z,58.03
2023-03-06T07:01:53.265Z,57.89
2023-03-06T07:04:24.892Z,57.23
2023-03-06T07:06:56.489Z,56.73
2023-03-06T07:09:25.137Z,55.02
2023-03-06T07:11:53.657Z,55.59
2023-03-06T07:14:22.201Z,55.23
2023-03-06T07:16:50.633Z,54.38
2023-03-06T07:19:21.505Z,52.63
2023-03-06T07:21:50.124Z,51.61
2023-03-06T07:24:20.893Z,50.68
2023-03-06T07:26:52.639Z,50.36
2023-03-06T07:29:21.174Z,49.51
2023-03-06T07:31:49.607Z,49.18
2023-03-06T07:34:18.014Z,49.77
2023-03-06T07:36:46.410Z,49.13
2023-03-06T07:39:14.886Z,49.43
2023-03-06T07:41:43.279Z,50.63
2023-03-06T07:44:11.646Z,49.41
2023-03-06T07:46:40.089Z,50.56
2023-03-06T07:49:08.500Z,50.45
2023-03-06T07:51:36.910Z,49.47
2023-03-06T07:54:05.370Z,49.49
2023-03-06T07:56:35.232Z,49.11
2023-03-06T07:59:03.837Z,49.42
2023-03-06T08:01:32.302Z,49.77
2023-03-06T08:04:02.259Z,49.85
2023-03-06T08:06:30.832Z,49.13
2023-03-06T08:08:59.185Z,49.15
2023-03-06T08:11:30.348Z,48.26
2023-03-06T08:13:59.421Z,47.31
2023-03-06T08:16:30.272Z,48.06
2023-03-06T08:18:58.829Z,47.92
2023-03-06T08:21:28.689Z,48.39
2023-03-06T08:23:57.349Z,47.99
2023-03-06T08:26:28.520Z,47.78
2023-03-06T08:28:58.909Z,47.05
2023-03-06T08:31:35.508Z,47.27
2023-03-06T08:34:06.889Z,47.50
2023-03-06T08:36:35.220Z,46.75
2023-03-06T08:39:04.880Z,44.17
2023-03-06T08:41:34.481Z,43.52
2023-03-06T08:44:03.882Z,42.51
2023-03-06T08:46:33.566Z,44.55
2023-03-06T08:49:02.583Z,42.88
2023-03-06T08:51:31.190Z,43.46
2023-03-06T08:54:00.400Z,41.71
2023-03-06T08:56:32.232Z,42.41
2023-03-06T08:59:04.048Z,41.13
2023-03-06T09:01:35.313Z,40.74
2023-03-06T09:04:10.034Z,39.34
2023-03-06T09:06:41.536Z,39.57
2023-03-06T09:09:10.357Z,40.84
2023-03-06T09:11:39.181Z,40.50
2023-03-06T09:14:07.734Z,41.12
2023-03-06T09:16:36.152Z,40.37
2023-03-06T09:19:04.799Z,38.91
2023-03-06T09:21:33.357Z,37.86
2023-03-06T09:24:01.782Z,37.76
2023-03-06T09:26:43.206Z,38.01
2023-03-06T09:29:16.423Z,39.21
2023-03-06T09:31:45.757Z,38.92
2023-03-06T09:34:14.366Z,38.07
2023-03-06T09:36:56.559Z,37.39
2023-03-06T09:39:26.405Z,36.10
2023-03-06T09:41:59.573Z,35.95
2023-03-06T09:44:34.030Z,35.99
2023-03-06T09:47:43.667Z,34.06
2023-03-06T09:50:36.624Z,34.32
2023-03-06T09:53:44.725Z,34.91
2023-03-06T09:56:24.788Z,34.26
2023-03-06T09:59:02.163Z,34.02
2023-03-06T10:01:35.186Z,32.73
2023-03-06T10:04:32.416Z,33.16
2023-03-06T10:07:10.540Z,32.81
2023-03-06T10:09:45.937Z,33.90
2023-03-06T10:12:29.363Z,34.85
2023-03-06T10:15:23.735Z,34.31
2023-03-06T10:17:52.084Z,34.90
2023-03-06T10:20:24.804Z,35.04
2023-03-06T10:23:05.096Z,32.83
2023-03-06T10:25:56.446Z,34.04
2023-03-06T10:28:44.845Z,35.50
2023-03-06T10:31:22.774Z,33.93
2023-03-06T10:33:54.126Z,32.70
2023-03-06T10:36:27.427Z,31.99
2023-03-06T10:38:58.667Z,33.58
2023-03-06T10:41:32.009Z,32.97
2023-03-06T10:44:00.455Z,33.31
2023-03-06T10:46:31.916Z,33.75
2023-03-06T10:49:03.351Z,33.10
2023-03-06T10:51:33.837Z,33.24
2023-03-06T10:54:23.989Z,33.50
2023-03-06T10:56:52.312Z,32.23
2023-03-06T10:59:25.518Z,32.48
2023-03-06T11:01:54.252Z,33.16
2023-03-06T11:04:34.887Z,32.58
2023-03-06T11:07:17.610Z,32.07
2023-03-06T11:10:02.380Z,32.01
2023-03-06T11:12:42.356Z,32.17
2023-03-06T11:15:18.952Z,31.06
2023-03-06T11:17:56.475Z,32.49
2023-03-06T11:20:52.597Z,32.56
2023-03-06T11:23:24.417Z,32.50
2023-03-06T11:25:57.947Z,31.67
2023-03-06T11:28:30.028Z,30.80
2023-03-06T11:31:10.810Z,31.23
2023-03-06T11:33:46.618Z,31.51
2023-03-06T11:36:27.132Z,31.65
2023-03-06T11:38:55.900Z,31.02
2023-03-06T11:41:40.369Z,31.19
2023-03-06T11:44:32.458Z,31.42
2023-03-06T11:47:12.976Z,30.92
2023-03-06T11:50:04.560Z,30.47
2023-03-06T11:52:53.591Z,29.66
2023-03-06T11:55:38.869Z,29.06
2023-03-06T11:58:28.457Z,29.24
2023-03-06T12:01:09.249Z,27.67
2023-03-06T12:03:57.812Z,29.65
2023-03-06T12:06:46.961Z,29.46
2023-03-06T12:09:49.578Z,28.36
2023-03-06T12:12:28.063Z,29.69
2023-03-06T12:15:20.923Z,29.47
2023-03-06T12:18:01.463Z,28.90
2023-03-06T12:20:33.177Z,27.58
2023-03-06T12:23:30.355Z,28.53
2023-03-06T12:26:26.660Z,28.83
2023-03-06T12:29:28.570Z,28.87
2023-03-06T12:32:11.490Z,28.47
2023-03-06T12:34:55.208Z,29.47
2023-03-06T12:37:32.656Z,30.05
2023-03-06T12:40:06.844Z,29.64
2023-03-06T12:43:00.533Z,29.98
2023-03-06T12:45:31.054Z,30.05
2023-03-06T12:48:00.426Z,29.01
2023-03-06T12:50:37.142Z,29.91
2023-03-06T12:53:16.292Z,29.90
2023-03-06T12:55:47.645Z,29.87
2023-03-06T12:58:31.505Z,29.72
2023-03-06T13:01:04.172Z,29.83
2023-03-06T13:03:57.724Z,30.37
2023-03-06T13:06:39.268Z,30.23
2023-03-06T13:09:36.278Z,30.41
2023-03-06T13:12:16.879Z,30.77
2023-03-06T13:14:54.156Z,31.18
2023-03-06T13:17:23.063Z,31.65
2023-03-06T13:20:13.367Z,31.89
2023-03-06T13:22:44.571Z,31.98
2023-03-06T13:25:21.042Z,32.09
2023-03-06T13:27:52.491Z,32.63
2023-03-06T13:30:39.113Z,32.31
2023-03-06T13:33:36.492Z,31.47
2023-03-06T13:36:16.964Z,31.08
2023-03-06T13:38:51.805Z,31.27
2023-03-06T13:41:23.192Z,31.63
2023-03-06T13:43:56.877Z,31.90
2023-03-06T13:46:35.255Z,32.40
2023-03-06T13:49:09.763Z,32.43
2023-03-06T13:51:47.947Z,32.68
2023-03-06T13:54:34.988Z,33.30
2023-03-06T13:57:12.420Z,33.51
2023-03-06T14:00:09.240Z,32.91
2023-03-06T14:02:56.840Z,33.84
2023-03-06T14:05:34.738Z,34.86
2023-03-06T14:08:33.162Z,34.65
2023-03-06T14:11:15.435Z,35.01
2023-03-06T14:13:49.722Z,34.00
2023-03-06T14:16:27.868Z,34.55
2023-03-06T14:18:59.067Z,34.24
2023-03-06T14:21:38.353Z,34.29
2023-03-06T14:24:06.750Z,34.64
2023-03-06T14:26:44.117Z,35.35
2023-03-06T14:29:24.441Z,35.32
2023-03-06T14:31:58.849Z,35.76
2023-03-06T14:34:38.676Z,35.87
2023-03-06T14:37:18.752Z,35.98
2023-03-06T14:39:47.978Z,36.30
2023-03-06T14:42:24.274Z,36.45
2023-03-06T14:45:16.333Z,36.81
2023-03-06T14:47:51.122Z,37.33
2023-03-06T14:50:28.671Z,37.73
2023-03-06T14:52:58.474Z,37.94
2023-03-06T14:55:29.066Z,38.72
2023-03-06T14:58:03.412Z,38.93
2023-03-06T15:00:39.307Z,38.76
2023-03-06T15:03:16.609Z,38.47
2023-03-06T15:05:47.301Z,38.42
2023-03-06T15:08:21.403Z,38.48
2023-03-06T15:10:59.169Z,38.61
2023-03-06T15:13:30.074Z,38.89
2023-03-06T15:16:22.948Z,38.70
2023-03-06T15:18:58.210Z,38.48
2023-03-06T15:21:28.706Z,38.82
2023-03-06T15:23:58.264Z,39.30
2023-03-06T15:26:33.523Z,39.42
2023-03-06T15:29:11.098Z,39.55
2023-03-06T15:31:42.169Z,39.48
2023-03-06T15:34:10.565Z,39.86
2023-03-06T15:36:41.582Z,40.11
2023-03-06T15:39:34.262Z,40.35
2023-03-06T15:42:26.149Z,40.25
2023-03-06T15:44:57.263Z,40.60
2023-03-06T15:47:25.895Z,40.71
2023-03-06T15:49:54.356Z,40.83
2023-03-06T15:52:23.728Z,40.83
2023-03-06T15:54:52.259Z,41.11
2023-03-06T15:57:29.919Z,40.97
2023-03-06T16:00:00.057Z,41.26
2023-03-06T16:02:28.527Z,41.45
2023-03-06T16:04:57.073Z,41.88
2023-03-06T16:07:26.823Z,41.70
2023-03-06T16:10:05.717Z,42.42
2023-03-06T16:12:34.396Z,42.74
2023-03-06T16:15:03.084Z,42.50
2023-03-06T16:17:31.506Z,42.79
2023-03-06T16:19:59.852Z,42.72
2023-03-06T16:22:28.199Z,42.41
2023-03-06T16:24:56.874Z,42.73
2023-03-06T16:27:25.882Z,43.23
2023-03-06T16:29:54.345Z,43.04
2023-03-06T16:32:22.959Z,43.47
2023-03-06T16:34:51.430Z,43.73
2023-03-06T16:37:19.976Z,43.56
2023-03-06T16:39:48.438Z,43.80
2023-03-06T16:42:17.775Z,44.65
2023-03-06T16:44:46.287Z,44.50
2023-03-06T16:47:15.092Z,44.48
2023-03-06T16:49:43.522Z,44.60
2023-03-06T16:52:12.036Z,44.55
2023-03-06T16:54:40.523Z,44.58
2023-03-06T16:57:13.779Z,44.96
2023-03-06T16:59:42.210Z,44.73
2023-03-06T17:02:11.960Z,44.86
2023-03-06T17:04:40.404Z,45.26
2023-03-06T17:07:08.742Z,46.08
2023-03-06T17:09:37.174Z,46.01
2023-03-06T17:12:05.859Z,45.80
2023-03-06T17:14:34.385Z,46.24
2023-03-06T17:17:02.782Z,46.31
2023-03-06T17:19:31.187Z,46.29
2023-03-06T17:21:59.683Z,46.58
2023-03-06T17:24:28.285Z,48.04
2023-03-06T17:26:56.993Z,47.29
2023-03-06T17:29:26.339Z,47.32
2023-03-06T17:31:55.003Z,47.88
2023-03-06T17:34:24.617Z,47.56
2023-03-06T17:36:53.132Z,47.73
2023-03-06T17:39:21.535Z,47.44
2023-03-06T17:41:50.157Z,47.47
2023-03-06T17:44:19.882Z,47.60
2023-03-06T17:46:48.378Z,48.14
2023-03-06T17:49:19.541Z,48.20
2023-03-06T17:51:47.841Z,48.29
2023-03-06T17:54:16.591Z,48.60
2023-03-06T17:56:45.217Z,48.29
2023-03-06T17:59:13.708Z,48.50
2023-03-06T18:01:43.597Z,48.54
2023-03-06T18:04:12.310Z,48.28
2023-03-06T18:06:40.677Z,48.25
2023-03-06T18:09:10.223Z,48.45
2023-03-06T18:11:39.348Z,48.50
2023-03-06T18:14:07.983Z,48.72
2023-03-06T18:16:36.814Z,48.80
2023-03-06T18:19:05.363Z,48.45
2023-03-06T18:21:33.789Z,48.95
2023-03-06T18:24:02.174Z,49.27
2023-03-06T18:26:30.666Z,49.34
2023-03-06T18:29:01.562Z,49.15
2023-03-06T18:31:38.825Z,48.75
2023-03-06T18:34:13.563Z,48.77
2023-03-06T18:36:47.185Z,48.39
2023-03-06T18:39:16.021Z,48.55
2023-03-06T18:41:44.577Z,48.52
2023-03-06T18:44:15.482Z,48.40
2023-03-06T18:46:44.632Z,48.05
2023-03-06T18:49:14.624Z,48.17
2023-03-06T18:51:43.102Z,49.49
2023-03-06T18:54:12.076Z,50.60
2023-03-06T18:56:44.169Z,50.87
2023-03-06T18:59:17.508Z,50.43
2023-03-06T19:01:47.865Z,50.50
2023-03-06T19:04:16.449Z,50.17
2023-03-06T19:06:44.929Z,50.20
2023-03-06T19:09:13.379Z,50.20
2023-03-06T19:11:42.858Z,49.86
2023-03-06T19:14:11.421Z,50.64
2023-03-06T19:16:39.749Z,50.11
2023-03-06T19:19:08.324Z,50.25
2023-03-06T19:21:36.832Z,50.85
2023-03-06T19:24:06.961Z,50.87
2023-03-06T19:26:35.357Z,50.82
2023-03-06T19:29:03.677Z,50.86
2023-03-06T19:31:32.044Z,50.59
2023-03-06T19:34:01.140Z,50.33
2023-03-06T19:36:33.757Z,50.53
2023-03-06T19:39:05.954Z,50.32
2023-03-06T19:41:34.718Z,50.89
2023-03-06T19:44:05.940Z,51.45
2023-03-06T19:46:36.352Z,50.60
2023-03-06T19:49:12.220Z,51.18
2023-03-06T19:51:42.642Z,49.80
2023-03-06T19:54:14.578Z,49.21
2023-03-06T19:56:43.235Z,49.53
2023-03-06T19:59:11.596Z,49.07
2023-03-06T20:01:40.661Z,49.19
2023-03-06T20:04:11.432Z,49.21
2023-03-06T20:06:40.026Z,49.45
2023-03-06T20:09:09.376Z,50.04
2023-03-06T20:11:38.880Z,50.86
2023-03-06T20:14:09.142Z,51.40
2023-03-06T20:16:37.978Z,51.27
2023-03-06T20:19:06.617Z,51.80
2023-03-06T20:21:37.730Z,52.17
2023-03-06T20:24:08.548Z,53.26
2023-03-06T20:26:38.287Z,53.33
2023-03-06T20:29:06.773Z,53.58
2023-03-06T20:31:35.833Z,54.17
2023-03-06T20:34:05.123Z,54.98
2023-03-06T20:36:36.873Z,55.55
2023-03-06T20:39:09.144Z,55.64
2023-03-06T20:41:37.790Z,56.02
2023-03-06T20:44:09.316Z,56.19
2023-03-06T20:46:37.775Z,56.47
2023-03-06T20:49:07.761Z,56.42
2023-03-06T20:51:39.335Z,56.33
2023-03-06T20:54:10.586Z,56.44
2023-03-06T20:56:41.316Z,56.17
2023-03-06T20:59:12.291Z,56.16
2023-03-06T21:01:43.107Z,55.96
2023-03-06T21:04:13.986Z,55.91
2023-03-06T21:06:46.779Z,55.71
2023-03-06T21:09:17.492Z,55.56
2023-03-06T21:11:46.517Z,55.55
2023-03-06T21:14:15.939Z,55.42
2023-03-06T21:16:44.962Z,55.55
2023-03-06T21:19:13.440Z,55.05
2023-03-06T21:21:41.931Z,55.27
2023-03-06T21:24:10.403Z,55.30
2023-03-06T21:26:38.795Z,55.13
2023-03-06T21:29:07.287Z,54.86
2023-03-06T21:33:12.215Z,55.35
2023-03-06T21:44:56.127Z,55.20
2023-03-06T21:47:24.512Z,55.17
2023-03-06T21:49:53.598Z,54.91
2023-03-06T21:52:21.896Z,55.00
2023-03-06T21:54:50.252Z,55.06
2023-03-06T21:57:18.715Z,55.58
2023-03-06T21:59:47.084Z,55.74
2023-03-06T22:02:15.496Z,57.32
2023-03-06T22:04:44.748Z,57.38
2023-03-06T22:07:13.550Z,57.73
2023-03-06T22:09:41.969Z,57.88
2023-03-06T22:12:10.434Z,57.98
2023-03-06T22:14:38.869Z,58.15
2023-03-06T22:17:07.276Z,57.99
2023-03-06T22:19:35.767Z,58.43
2023-03-06T22:22:04.572Z,58.60
2023-03-06T22:24:32.922Z,58.65
2023-03-06T22:27:01.240Z,58.70
2023-03-06T22:29:49.578Z,58.66
2023-03-06T22:32:18.123Z,58.71
2023-03-06T22:34:47.096Z,58.08
2023-03-06T22:37:16.297Z,58.09
2023-03-06T22:39:44.794Z,58.80
2023-03-06T22:42:13.161Z,58.36
2023-03-06T22:44:42.659Z,57.84
2023-03-06T22:47:11.037Z,57.54
2023-03-06T22:49:39.488Z,57.19
2023-03-06T22:52:07.785Z,56.98
2023-03-06T22:54:36.267Z,56.96
2023-03-06T22:57:04.790Z,56.81
2023-03-06T22:59:33.142Z,56.78
2023-03-06T23:02:01.526Z,56.78
2023-03-06T23:04:30.056Z,57.13
2023-03-06T23:06:58.360Z,57.25
2023-03-06T23:09:27.004Z,58.09
2023-03-06T23:12:13.875Z,57.78
2023-03-06T23:15:01.092Z,58.42
2023-03-06T23:17:48.138Z,58.50
2023-03-06T23:20:34.854Z,58.23
2023-03-06T23:23:22.911Z,59.54
2023-03-06T23:25:52.084Z,60.00
2023-03-06T23:28:20.523Z,60.75
2023-03-06T23:30:48.894Z,62.02
2023-03-06T23:33:17.276Z,64.79
2023-03-06T23:35:45.851Z,65.72
2023-03-06T23:38:14.576Z,68.77
2023-03-06T23:40:43.013Z,69.60
2023-03-06T23:43:11.439Z,70.01
2023-03-06T23:45:39.829Z,70.77
2023-03-06T23:48:08.143Z,71.30
2023-03-06T23:50:39.834Z,71.85
2023-03-06T23:53:08.458Z,71.62
2023-03-06T23:55:44.372Z,71.41
2023-03-06T23:58:14.128Z,72.47
